Latest Weather Observations for Badgingarra

IDW60801

Issued at 6:05 pm WST Monday 21 April 2014 (issued every 30 minutes, with the page automatically refreshed every 10 minutes)

About weather observations | Map of weather stations | Latest weather observations for WA | Other Formats
Station Details ID: 009037 Name: BADGINGARRA RESEARCH STN Lat: -30.34 Lon: 115.54 Height: 275.0 m
Data from the previous 72 hours. | See also: Recent months at Badgingarra
Date/Time
WST
Temp
°C
App
Temp
°C
Dew
Point
Rel
Hum
%
Delta-T
°C
Wind Press
QNH
hPa
Press
MSL
hPa
Rain
since 9 am
mm
Dir
 
Spd
km/h
Gust
km/h
Spd
kts
Gust
kts
21/06:00pm 17.7 12.9 5.6 45 6.0 S 20 26 11 14 - - 0.0
21/05:30pm 18.9 13.4 6.1 43 6.4 S 24 30 13 16 - - 0.0
21/05:00pm 20.2 14.4 6.2 40 7.1 S 26 32 14 17 - - 0.0
21/04:30pm 21.5 15.7 6.2 37 7.8 S 26 33 14 18 - - 0.0
21/04:00pm 22.5 16.8 6.7 36 8.2 S 26 33 14 18 - - 0.0
21/03:30pm 22.8 18.4 6.6 35 8.4 SSW 19 26 10 14 - - 0.0
21/03:00pm 22.9 18.5 6.6 35 8.5 S 19 28 10 15 - - 0.0
21/02:30pm 23.3 19.4 7.0 35 8.5 SSE 17 26 9 14 - - 0.0
21/02:00pm 22.7 18.7 6.5 35 8.4 SSW 17 24 9 13 - - 0.0
21/01:30pm 22.7 18.3 7.3 37 8.1 SSE 20 33 11 18 - - 0.0
21/01:00pm 22.6 19.2 7.6 38 7.9 SE 15 28 8 15 - - 0.0
21/12:30pm 21.8 17.6 7.6 40 7.5 SE 19 28 10 15 - - 0.0
21/12:00pm 21.4 17.0 7.6 41 7.2 SSE 20 28 11 15 - - 0.0
21/11:30am 21.0 16.3 7.6 42 7.0 SSE 22 32 12 17 - - 0.0
21/11:00am 20.3 15.3 8.0 45 6.5 SSE 24 33 13 18 - - 0.0
21/10:30am 19.5 14.7 8.8 50 5.7 SSE 24 35 13 19 - - 0.0
21/10:00am 19.0 14.2 8.9 52 5.3 SSE 24 33 13 18 - - 0.0
21/09:30am 18.2 13.8 10.3 60 4.3 SE 24 30 13 16 - - 0.0
21/09:00am 17.4 13.9 10.8 65 3.6 SSE 20 28 11 15 - - 0.0
21/08:30am 15.8 12.2 10.6 71 2.8 SSE 20 26 11 14 - - 0.0
21/08:00am 14.7 11.7 10.5 76 2.2 SSE 17 24 9 13 - - 0.0
21/07:30am 12.9 9.7 9.9 82 1.6 SSE 17 20 9 11 - - 0.0
21/07:00am 12.1 8.9 9.8 86 1.2 SSE 17 20 9 11 - - 0.0
21/06:30am 12.2 9.0 9.9 86 1.2 SSE 17 20 9 11 - - 0.0
21/06:00am 12.3 8.7 10.0 86 1.2 SSE 19 22 10 12 - - 0.0
21/05:30am 12.3 9.6 10.4 88 1.0 SSE 15 20 8 11 - - 0.0
21/05:00am 12.3 10.4 10.4 88 1.0 SSE 11 15 6 8 - - 0.0
21/04:30am 13.0 10.5 11.2 89 1.0 S 15 19 8 10 - - 0.0
21/04:00am 13.3 11.7 11.5 89 1.0 S 11 15 6 8 - - 0.0
21/03:30am 13.5 11.5 11.6 88 1.0 S 13 15 7 8 - - 0.0
21/03:00am 13.7 11.4 11.8 88 1.0 S 15 19 8 10 - - 0.0
21/02:30am 14.1 11.9 12.1 88 1.1 S 15 20 8 11 - - 0.0
21/02:00am 14.5 12.9 12.7 89 1.0 S 13 17 7 9 - - 0.0
21/01:30am 14.5 12.2 12.9 90 0.9 S 17 19 9 10 - - 0.0
21/01:00am 14.8 13.0 13.2 90 0.9 S 15 20 8 11 - - 0.0
21/12:30am 14.3 12.0 12.9 91 0.8 S 17 19 9 10 - - 0.0
21/12:00am 14.1 12.0 12.3 89 1.0 S 15 17 8 9 - - 0.0
 
Date/Time
WST
Temp
°C
App
Temp
°C
Dew
Point
Rel
Hum
%
Delta-T
°C
Wind Press
QNH
hPa
Press
MSL
hPa
Rain
since 9 am
mm
Dir
 
Spd
km/h
Gust
km/h
Spd
kts
Gust
kts
20/11:30pm 14.6 12.6 12.6 88 1.1 S 15 19 8 10 - - 0.0
20/11:00pm 14.8 12.4 12.7 87 1.2 S 17 20 9 11 - - 0.0
20/10:30pm 15.0 12.1 12.9 87 1.2 S 20 22 11 12 - - 0.0
20/10:00pm 15.1 12.2 13.0 87 1.2 S 20 26 11 14 - - 0.0
20/09:30pm 15.2 12.5 12.9 86 1.3 S 19 22 10 12 - - 0.0
20/09:00pm 15.6 13.0 13.1 85 1.4 S 19 22 10 12 - - 0.0
20/08:30pm 15.6 13.3 13.1 85 1.4 S 17 20 9 11 - - 0.0
20/08:00pm 16.1 13.5 13.2 83 1.6 SSW 19 24 10 13 - - 0.0
20/07:30pm 16.2 13.4 13.3 83 1.6 SSW 20 26 11 14 - - 0.0
20/07:00pm 16.4 13.8 13.1 81 1.9 SSW 19 26 10 14 - - 0.0
20/06:30pm 16.9 14.3 13.2 79 2.1 SSW 19 26 10 14 - - 0.0
20/06:00pm 17.4 14.6 13.3 77 2.3 SSW 20 30 11 16 - - 0.0
20/05:30pm 18.4 14.9 13.3 72 2.9 SSW 24 32 13 17 - - 0.0
20/05:00pm 19.8 16.5 12.8 64 4.0 SW 22 28 12 15 - - 0.0
20/04:30pm 20.7 17.7 12.7 60 4.6 SW 20 30 11 16 - - 0.0
20/04:00pm 22.2 18.9 12.7 55 5.5 WSW 22 30 12 16 - - 0.0
20/03:30pm 21.1 17.3 12.5 58 4.9 SW 24 32 13 17 - - 0.0
20/03:00pm 21.7 17.5 12.5 56 5.3 WSW 26 32 14 17 - - 0.0
20/02:30pm 23.2 19.7 12.2 50 6.3 WSW 22 28 12 15 - - 0.0
20/02:00pm 23.8 20.8 11.8 47 6.9 W 19 26 10 14 - - 0.0
20/01:30pm 23.1 20.0 11.5 48 6.6 W 19 30 10 16 - - 0.0
20/01:00pm 23.3 21.1 12.0 49 6.5 W 15 24 8 13 - - 0.0
20/12:30pm 23.8 20.8 11.8 47 6.9 WSW 19 28 10 15 - - 0.0
20/12:00pm 23.5 21.2 11.9 48 6.6 WNW 15 20 8 11 - - 0.0
20/11:30am 23.4 20.4 12.7 51 6.2 W 20 30 11 16 - - 0.0
20/11:00am 22.8 20.3 12.4 52 6.0 W 17 26 9 14 - - 0.0
20/10:30am 22.0 19.3 12.8 56 5.3 WSW 19 30 10 16 - - 0.0
20/10:00am 21.5 19.0 13.4 60 4.7 WSW 19 24 10 13 - - 0.0
20/09:30am 20.6 19.2 14.5 68 3.6 SW 15 20 8 11 - - 0.0
20/09:00am 18.7 18.0 15.4 81 2.0 SW 13 17 7 9 - - 0.0
20/08:30am 16.7 16.7 15.1 90 0.9 SW 9 13 5 7 - - 0.0
20/08:00am 15.6 16.1 15.6 100 0.0 SSW 7 11 4 6 - - 0.0
20/07:30am 12.6 12.7 12.6 100 0.0 S 4 6 2 3 - - 0.0
20/07:00am 12.4 12.4 12.4 100 0.0 S 4 6 2 3 - - 0.0
20/06:30am 12.1 11.6 12.1 100 0.0 S 6 7 3 4 - - 0.0
20/06:00am 11.8 10.6 11.5 98 0.2 WSW 9 11 5 6 - - 0.0
20/05:30am 12.9 12.9 12.4 97 0.3 WSW 4 9 2 5 - - 0.0
20/05:00am 13.6 12.9 13.1 97 0.3 SSW 9 13 5 7 - - 0.0
20/04:30am 14.3 13.3 13.5 95 0.5 S 11 13 6 7 - - 0.0
20/04:00am 15.2 14.5 14.4 95 0.5 S 11 15 6 8 - - 0.0
20/03:30am 15.6 13.9 14.8 95 0.5 S 17 19 9 10 - - 0.0
20/03:00am 15.7 14.4 14.9 95 0.5 S 15 19 8 10 - - 0.0
20/02:30am 14.9 14.2 14.3 96 0.3 S 11 17 6 9 - - 0.0
20/02:00am 14.8 14.3 13.8 94 0.6 S 9 13 5 7 - - 0.0
20/01:30am 15.1 12.8 14.0 93 0.6 S 19 24 10 13 - - 0.0
20/01:00am 15.3 12.5 14.2 93 0.6 S 22 28 12 15 - - 0.0
20/12:30am 15.2 11.9 14.1 93 0.6 S 24 30 13 16 - - 0.0
20/12:00am 15.2 11.5 13.9 92 0.7 S 26 33 14 18 - - 0.0
 
Date/Time
WST
Temp
°C
App
Temp
°C
Dew
Point
Rel
Hum
%
Delta-T
°C
Wind Press
QNH
hPa
Press
MSL
hPa
Rain
since 9 am
mm
Dir
 
Spd
km/h
Gust
km/h
Spd
kts
Gust
kts
19/11:30pm 15.6 11.6 14.1 91 0.9 S 28 35 15 19 - - 0.0
19/11:00pm 15.4 11.2 13.6 89 1.0 S 28 35 15 19 - - 0.0
19/10:30pm 15.7 11.6 13.7 88 1.1 S 28 33 15 18 - - 0.0
19/10:00pm 15.8 12.0 13.6 87 1.3 S 26 35 14 19 - - 0.0
19/09:30pm 15.9 12.0 13.4 85 1.4 S 26 32 14 17 - - 0.0
19/09:00pm 16.1 12.1 13.0 82 1.7 S 26 33 14 18 - - 0.0
19/08:30pm 16.5 11.7 12.8 79 2.1 S 30 37 16 20 - - 0.0
19/08:00pm 16.5 11.2 12.5 77 2.2 S 32 41 17 22 - - 0.0
19/07:30pm 16.6 11.6 12.2 75 2.4 SSW 30 35 16 19 - - 0.0
19/07:00pm 17.1 12.3 11.8 71 2.9 SSW 28 33 15 18 - - 0.0
19/06:30pm 18.0 13.5 11.3 65 3.7 SSW 26 33 14 18 - - 0.0
19/06:00pm 19.1 14.3 11.7 62 4.1 SSW 28 35 15 19 - - 0.0
19/05:30pm 20.6 15.9 12.1 58 4.8 SSW 28 37 15 20 - - 0.0
19/05:00pm 22.1 17.8 12.1 53 5.7 S 26 39 14 21 - - 0.0
19/04:30pm 23.2 18.4 11.6 48 6.6 SSW 28 33 15 18 - - 0.0
19/04:00pm 24.3 19.9 11.6 45 7.3 S 26 33 14 18 - - 0.0
19/03:30pm 25.1 20.6 11.3 42 7.9 S 26 33 14 18 - - 0.0
19/03:00pm 26.0 21.1 11.4 40 8.4 S 28 39 15 21 - - 0.0
19/02:30pm 26.1 21.6 11.5 40 8.4 S 26 37 14 20 - - 0.0
19/02:00pm 26.7 22.7 10.4 36 9.2 S 22 33 12 18 - - 0.0
19/01:30pm 26.6 22.2 9.0 33 9.7 SSW 22 30 12 16 - - 0.0
19/01:00pm 26.1 21.6 9.9 36 9.1 SSW 24 32 13 17 - - 0.0
19/12:30pm 25.9 21.8 10.1 37 8.9 S 22 33 12 18 - - 0.0
19/12:00pm 25.4 21.7 10.1 38 8.6 S 20 30 11 16 - - 0.0
19/11:30am 24.7 20.7 10.6 41 7.9 S 22 30 12 16 - - 0.0
19/11:00am 24.0 20.0 10.3 42 7.6 S 22 30 12 16 - - 0.0
19/10:30am 23.5 19.5 10.6 44 7.2 S 22 28 12 15 - - 0.0
19/10:00am 22.6 18.3 10.7 47 6.6 S 24 30 13 16 - - 0.0
19/09:30am 20.6 16.0 11.2 55 5.2 S 26 32 14 17 - - 0.0
19/09:00am 19.2 13.7 11.7 62 4.2 S 32 39 17 21 - - 0.0
19/08:30am 18.2 14.7 12.2 68 3.4 S 22 32 12 17 - - 0.0
19/08:00am 16.6 13.8 12.6 77 2.2 S 19 26 10 14 - - 0.0
19/07:30am 15.3 12.2 12.2 82 1.7 S 20 28 11 15 - - 0.0
19/07:00am 14.6 11.0 11.9 84 1.5 S 22 30 12 16 - - 0.0
19/06:30am 14.7 10.8 12.0 84 1.5 S 24 32 13 17 - - 0.0
19/06:00am 14.5 11.7 12.5 88 1.1 S 19 24 10 13 - - 0.0
19/05:30am 14.8 11.4 12.5 86 1.3 S 22 28 12 15 - - 0.0
19/05:00am 14.6 11.6 12.6 88 1.1 S 20 26 11 14 - - 0.0
19/04:30am 14.7 11.3 12.6 87 1.2 S 22 30 12 16 - - 0.0
19/04:00am 14.7 11.9 12.6 87 1.2 S 19 26 10 14 - - 0.0
19/03:30am 14.3 11.4 12.3 88 1.1 SSE 19 24 10 13 - - 0.0
19/03:00am 15.1 12.4 12.8 86 1.3 SSE 19 24 10 13 - - 0.0
19/02:30am 15.3 12.4 13.0 86 1.3 SSE 20 26 11 14 - - 0.0
19/02:00am 15.8 13.0 13.3 85 1.4 S 20 28 11 15 - - 0.0
19/01:30am 16.1 13.1 13.8 86 1.3 S 22 28 12 15 - - 0.0
19/01:00am 16.5 14.0 14.0 85 1.4 S 20 28 11 15 - - 0.0
19/12:30am 16.6 14.2 13.7 83 1.7 S 19 24 10 13 - - 0.0
19/12:00am 17.0 14.3 13.5 80 2.0 S 20 24 11 13 - - 0.0
 
Date/Time
WST
Temp
°C
App
Temp
°C
Dew
Point
Rel
Hum
%
Delta-T
°C
Wind Press
QNH
hPa
Press
MSL
hPa
Rain
since 9 am
mm
Dir
 
Spd
km/h
Gust
km/h
Spd
kts
Gust
kts
18/11:30pm 17.7 14.9 13.2 75 2.6 S 20 26 11 14 - - 0.0
18/11:00pm 18.1 15.2 13.0 72 2.9 S 20 26 11 14 - - 0.0
18/10:30pm 18.4 15.5 12.8 70 3.2 S 20 24 11 13 - - 0.0
18/10:00pm 18.9 15.6 12.9 68 3.4 S 22 30 12 16 - - 0.0
18/09:30pm 19.1 15.7 12.4 65 3.8 S 22 28 12 15 - - 0.0
18/09:00pm 19.6 15.9 11.6 60 4.5 S 22 28 12 15 - - 0.0
18/08:30pm 20.1 16.0 11.6 58 4.8 S 24 32 13 17 - - 0.0
18/08:00pm 20.2 16.5 11.4 57 4.9 S 22 28 12 15 - - 0.0
18/07:30pm 20.6 17.4 11.8 57 5.0 S 20 26 11 14 - - 0.0
18/07:00pm 21.0 17.7 11.6 55 5.3 S 20 26 11 14 - - 0.0
18/06:30pm 22.1 17.9 11.2 50 6.1 S 24 30 13 16 - - 0.0

Other Formats:

Comma delimited format used in spreadsheet applications
http://www.bom.gov.au/fwo/IDW60801/IDW60801.94603.axf

JavaScript Object Notation format (JSON) in row-major order
http://www.bom.gov.au/fwo/IDW60801/IDW60801.94603.json